Нальчик

Карта отелей и гостиниц, располагающихся рядом с аэропортом Нальчик :

Нальчик Кабардино-Балкарская республика 43° 30' 46.5588" N, 43° 38' 11.94" E
Код аэродрома ИКАО
URMN
Код аэродрома RU
УРМН
Координаты
N43.51293° E043.63665°
Превышение над уровнем моря
446
Основная полоса
06L/24R
Курс магнитный
055,8/235,8
Длина основной ВПП
2200
Ширина основной ВПП
42
Покрытие основной ВПП
Твёрдое
Освещение ВПП
Постоянное
Тип: 
Аэродром
Класс аэродрома: 
Международный
Принадлежность: 
ГА
Статус: 
Действующий
Сайт: 
http://airport-nalchik.ru/
E-mail аэродрома: 
nalavia@mail.ru
Страна: 
Россия
Регион: 
Кабардино-Балкарская республика
Дополнительная информация: 
Горный. Совместного базирования. Нкр.=(100-500)м. Оператор: ФГУП «Эльбрус-Авиа». Военный индекс: XRMN / ЬРМН.
Схемы аэропортов: 
Погода: 

Авиационная погода в Нальчике

Регион: 
Погода METAR: 
URMN 241700Z 21002MPS 9999 OVC050 13/07 Q1017 R24/010070 NOSIG RMK QFE726
Время наблюдения
2021-10-24T17:00:00Z
Температура C
13.0
Точка росы
7.0
Направление ветра
210
Скорость ветра (узлы)
4
Метео видимость
6.21
Явления погоды
Условия полета
VFR
Аэропорт подробнее: 

Найти трансфер

С помощью этой формы Вы можете найти трансфер из аэропорта Нальчик в город, аэропорт или вокзал:

Карта места

Javascript is required to view this map.

Погода в аэропортах:

Авиационная погода в Нижнем Новгороде

Регион: 
Погода METAR: 
UWGG 241700Z 31006MPS 9999 -SHRA OVC010CB 02/01 Q1011 R36R/290050 NOSIG
Время наблюдения
2021-10-24T17:00:00Z
Температура C
2.0
Точка росы
1.0
Направление ветра
310
Скорость ветра (узлы)
12
Метео видимость
6.21
Явления погоды
-SHRA
Условия полета
MVFR
Аэропорт подробнее: 

Авиационная погода в Москва - Внуково

Погода METAR: 
UUWW 241700Z 33006MPS 9000 -SHSN BKN031CB 01/M04 Q1022 RMK WS R24 R24/290050 TEMPO 1500 SHSN BKN012CB
Время наблюдения
2021-10-24T17:00:00Z
Температура C
1.0
Точка росы
-4.0
Направление ветра
330
Скорость ветра (узлы)
12
Метео видимость
5.59
Явления погоды
-SHSN
Условия полета
VFR
Аэропорт подробнее: 

Авиационная погода в Берлевоге

Регион: 
Погода METAR: 
ENBV 221920Z 01015KT 9999 VCSH FEW008 SCT030 BKN045 00/M06 Q1000
Время наблюдения
2021-10-22T19:20:00Z
Температура C
0.0
Точка росы
-6.0
Направление ветра
10
Скорость ветра (узлы)
15
Метео видимость
6.21
Явления погоды
VCSH
Условия полета
VFR

Авиационная погода в Ботсфьорде

Регион: 
Погода METAR: 
ENBS 241420Z 28005KT 9999 -SHSN FEW016 SCT023 BKN045 M01/M03 Q1012
Время наблюдения
2021-10-24T14:20:00Z
Температура C
-1.0
Точка росы
-3.0
Направление ветра
280
Скорость ветра (узлы)
5
Метео видимость
6.21
Явления погоды
-SHSN
Условия полета
VFR